Time;durP1;ratioP1;P1;durP2;ratioP2;P2;SDS_P1;SDS_P2;PMS_P1;PMS_P2;Temp;Humidity;BMP_temperature;BMP_pressure;BME280_temperature;BME280_humidity;BME280_pressure;Samples;Min_cycle;Max_cycle;Signal;HPM_P1;HPM_P2
2023/10/07 00:01:40;;;;;;;0.10;0.10;;;19.10;47.70;;;;;;5033381;28;20192;-53
2023/10/07 00:04:14;;;;;;;0.10;0.10;;;19.10;47.70;;;;;;5032993;28;20247;-58
2023/10/07 00:06:45;;;;;;;0.10;0.10;;;19.10;47.80;;;;;;5032845;28;20191;-52
2023/10/07 00:09:22;;;;;;;0.10;0.10;;;19.10;47.80;;;;;;5032675;28;20286;-56
2023/10/07 00:11:54;;;;;;;0.10;0.10;;;19.10;47.80;;;;;;5032768;28;20199;-53
2023/10/07 00:14:30;;;;;;;0.10;0.10;;;19.10;47.90;;;;;;5033264;28;20226;-57
2023/10/07 00:17:05;;;;;;;0.10;0.10;;;19.10;47.80;;;;;;5032941;28;20206;-55
2023/10/07 00:19:39;;;;;;;0.10;0.10;;;19.10;47.90;;;;;;5032918;28;20199;-56
2023/10/07 00:22:13;;;;;;;0.10;0.10;;;19.10;47.90;;;;;;5032767;28;20200;-58
2023/10/07 00:24:46;;;;;;;0.17;0.17;;;19.10;47.90;;;;;;5032193;28;20235;-54
2023/10/07 00:27:26;;;;;;;0.08;0.08;;;19.10;47.90;;;;;;5032454;28;20199;-51
2023/10/07 00:29:59;;;;;;;0.10;0.10;;;19.10;47.90;;;;;;5031846;28;20224;-55
2023/10/07 00:32:30;;;;;;;0.00;0.00;;;19.00;47.90;;;;;;5032090;28;20227;-49
2023/10/07 00:35:06;;;;;;;0.10;0.10;;;19.10;48.00;;;;;;5032518;28;20196;-58
2023/10/07 00:37:38;;;;;;;0.08;0.08;;;19.00;47.90;;;;;;5032322;28;20279;-55
2023/10/07 00:40:14;;;;;;;0.10;0.10;;;19.00;47.80;;;;;;5032118;28;20254;-48
2023/10/07 00:42:46;;;;;;;0.00;0.00;;;19.10;47.90;;;;;;5032601;28;20567;-53
2023/10/07 00:45:19;;;;;;;0.10;0.10;;;19.00;47.80;;;;;;5032239;28;20282;-57
2023/10/07 00:47:52;;;;;;;0.00;0.00;;;19.10;47.90;;;;;;5032075;28;20642;-57
2023/10/07 00:50:27;;;;;;;0.03;0.03;;;19.00;47.90;;;;;;5032233;28;20232;-55
2023/10/07 00:52:59;;;;;;;0.00;0.00;;;19.10;47.90;;;;;;5032329;28;20266;-59
2023/10/07 00:55:35;;;;;;;0.10;0.10;;;19.00;47.80;;;;;;5032165;28;20254;-55
2023/10/07 00:58:15;;;;;;;0.00;0.00;;;19.10;47.90;;;;;;5032378;28;20195;-56
2023/10/07 01:00:49;;;;;;;0.10;0.10;;;19.10;48.00;;;;;;5031419;28;20199;-58
2023/10/07 01:03:32;;;;;;;0.10;0.10;;;19.10;47.90;;;;;;5032011;28;20238;-56
2023/10/07 01:06:13;;;;;;;0.00;0.00;;;19.10;47.90;;;;;;5031763;28;20188;-56
2023/10/07 01:08:50;;;;;;;0.00;0.00;;;19.10;48.30;;;;;;5031694;28;20224;-57
2023/10/07 01:11:29;;;;;;;0.05;0.05;;;19.10;48.40;;;;;;5031834;28;20196;-58
2023/10/07 01:14:00;;;;;;;0.10;0.10;;;19.10;48.60;;;;;;5032574;28;20235;-57
2023/10/07 01:16:40;;;;;;;0.05;0.05;;;19.10;48.80;;;;;;5032039;28;20290;-58
2023/10/07 01:22:12;;;;;;;0.03;0.03;;;19.20;48.90;;;;;;4996351;28;20200;-56
2023/10/07 01:24:49;;;;;;;0.10;0.10;;;19.20;48.70;;;;;;5031121;28;20215;-57
2023/10/07 01:27:22;;;;;;;0.00;0.00;;;19.20;48.70;;;;;;5031274;28;20231;-54
2023/10/07 01:29:59;;;;;;;0.20;0.20;;;19.20;48.60;;;;;;5031627;28;20757;-52
2023/10/07 01:32:32;;;;;;;0.10;0.10;;;19.20;48.50;;;;;;5031137;28;20196;-55
2023/10/07 01:35:11;;;;;;;0.10;0.10;;;19.20;48.50;;;;;;5031114;28;20279;-49
2023/10/07 01:37:48;;;;;;;0.08;0.08;;;19.20;48.40;;;;;;5030385;28;20196;-52
2023/10/07 01:40:27;;;;;;;0.10;0.10;;;19.20;48.40;;;;;;5031413;28;20559;-51
2023/10/07 01:42:57;;;;;;;0.10;0.10;;;19.20;48.30;;;;;;5031386;28;20588;-54
2023/10/07 01:45:34;;;;;;;0.10;0.10;;;19.20;48.40;;;;;;5031138;28;20711;-58
2023/10/07 01:48:07;;;;;;;0.08;0.08;;;19.20;48.30;;;;;;5030904;28;20215;-50
2023/10/07 01:50:43;;;;;;;0.10;0.10;;;19.20;48.30;;;;;;5030867;28;20481;-57
2023/10/07 01:53:15;;;;;;;0.00;0.00;;;19.20;48.30;;;;;;5031170;28;20258;-48
2023/10/07 01:55:47;;;;;;;0.10;0.10;;;19.20;48.60;;;;;;5030513;28;20431;-48
2023/10/07 01:58:19;;;;;;;0.10;0.10;;;19.10;49.40;;;;;;5031266;28;20204;-48
2023/10/07 02:00:51;;;;;;;0.10;0.10;;;19.20;48.60;;;;;;5030797;28;20215;-50
2023/10/07 02:03:23;;;;;;;0.10;0.00;;;19.20;48.50;;;;;;5030641;28;20274;-45
2023/10/07 02:05:55;;;;;;;0.00;0.00;;;19.20;48.80;;;;;;5030915;28;20236;-47
2023/10/07 02:08:26;;;;;;;0.10;0.10;;;19.10;48.90;;;;;;5031125;28;20203;-47
2023/10/07 02:10:59;;;;;;;0.10;0.10;;;19.10;49.20;;;;;;5031179;28;20254;-53
2023/10/07 02:13:30;;;;;;;0.10;0.10;;;19.00;49.20;;;;;;5031564;28;20216;-57
2023/10/07 02:16:03;;;;;;;0.10;0.10;;;19.00;49.20;;;;;;5030875;28;20208;-52
2023/10/07 02:18:35;;;;;;;0.10;0.10;;;19.00;49.20;;;;;;5031378;28;20196;-56
2023/10/07 02:21:10;;;;;;;0.10;0.10;;;19.00;49.20;;;;;;5031333;28;20197;-55
2023/10/07 02:23:43;;;;;;;0.10;0.10;;;18.90;49.20;;;;;;5030913;28;20216;-51
2023/10/07 02:26:19;;;;;;;0.10;0.10;;;19.00;49.20;;;;;;5030893;28;20232;-56
2023/10/07 02:28:51;;;;;;;0.10;0.10;;;18.90;49.20;;;;;;5031041;28;20753;-55
2023/10/07 02:31:23;;;;;;;0.10;0.10;;;18.90;49.20;;;;;;5030859;28;20203;-58
2023/10/07 02:33:57;;;;;;;0.00;0.00;;;19.00;49.20;;;;;;5030403;28;20231;-55
2023/10/07 02:36:31;;;;;;;0.10;0.10;;;19.00;49.30;;;;;;5030414;28;20196;-54
2023/10/07 02:39:05;;;;;;;0.00;0.00;;;19.00;49.30;;;;;;5030759;28;20199;-52
2023/10/07 02:41:37;;;;;;;0.10;0.10;;;19.00;49.20;;;;;;5030892;28;20197;-57
2023/10/07 02:44:15;;;;;;;0.10;0.10;;;19.00;49.70;;;;;;5030756;28;20696;-54
2023/10/07 02:46:52;;;;;;;0.10;0.10;;;19.00;49.10;;;;;;5031048;28;20215;-55
2023/10/07 02:49:25;;;;;;;0.10;0.10;;;19.00;49.10;;;;;;5034433;28;20223;-53
2023/10/07 02:51:58;;;;;;;0.10;0.10;;;19.00;49.10;;;;;;5034111;28;20196;-56
2023/10/07 02:54:32;;;;;;;0.00;0.00;;;19.00;49.00;;;;;;5034551;28;20212;-54
2023/10/07 02:57:09;;;;;;;0.00;0.00;;;19.00;49.00;;;;;;5034653;28;20333;-54
2023/10/07 02:59:50;;;;;;;0.10;0.10;;;19.00;49.00;;;;;;5033715;28;20275;-54
2023/10/07 03:02:37;;;;;;;0.00;0.00;;;19.00;49.00;;;;;;5033679;28;20193;-57
2023/10/07 03:05:14;;;;;;;0.10;0.10;;;19.00;48.90;;;;;;5034205;28;20195;-55
2023/10/07 03:07:49;;;;;;;0.10;0.10;;;19.00;48.90;;;;;;5033898;28;20202;-53
2023/10/07 03:10:30;;;;;;;0.10;0.10;;;19.00;48.90;;;;;;5033555;28;20231;-56
2023/10/07 03:13:02;;;;;;;0.00;0.00;;;19.00;48.80;;;;;;5033854;28;20212;-54
2023/10/07 03:15:45;;;;;;;0.10;0.10;;;19.00;48.80;;;;;;5014117;28;20211;-56
2023/10/07 03:21:06;;;;;;;0.00;0.00;;;19.00;48.80;;;;;;5033555;28;20191;-56
2023/10/07 03:23:38;;;;;;;0.10;0.10;;;19.00;48.70;;;;;;5033749;28;20216;-57
2023/10/07 03:26:09;;;;;;;0.10;0.10;;;19.10;49.40;;;;;;5034078;28;20196;-51
2023/10/07 03:28:51;;;;;;;0.00;0.00;;;19.00;48.80;;;;;;5033919;28;20246;-52
2023/10/07 03:31:33;;;;;;;0.00;0.00;;;19.10;48.80;;;;;;5033866;28;20200;-55
2023/10/07 03:34:07;;;;;;;0.10;0.10;;;19.10;48.80;;;;;;5033618;28;20308;-54
2023/10/07 03:36:45;;;;;;;0.10;0.10;;;19.10;48.80;;;;;;5033781;28;20403;-51
2023/10/07 03:39:27;;;;;;;0.10;0.10;;;19.10;48.80;;;;;;5033523;28;20196;-55
2023/10/07 03:41:59;;;;;;;0.10;0.10;;;19.10;48.80;;;;;;5033115;28;20200;-56
2023/10/07 03:44:32;;;;;;;0.10;0.10;;;19.00;48.70;;;;;;5032370;28;20272;-56
2023/10/07 03:47:03;;;;;;;0.10;0.10;;;19.10;48.80;;;;;;5032795;28;20201;-56
2023/10/07 03:49:40;;;;;;;0.10;0.10;;;19.00;48.70;;;;;;5033662;28;20245;-56
2023/10/07 03:52:12;;;;;;;0.00;0.00;;;19.00;48.70;;;;;;5033717;28;20664;-53
2023/10/07 03:54:43;;;;;;;0.10;0.10;;;19.10;48.70;;;;;;5033383;28;20644;-55
2023/10/07 03:57:15;;;;;;;0.20;0.20;;;19.10;48.70;;;;;;5033225;28;20201;-54
2023/10/07 03:59:48;;;;;;;0.10;0.10;;;19.10;48.60;;;;;;5032410;28;20656;-53
2023/10/07 04:02:37;;;;;;;0.10;0.10;;;19.10;48.60;;;;;;5033088;28;20660;-58
2023/10/07 04:05:14;;;;;;;0.10;0.10;;;19.10;48.60;;;;;;5033145;28;20200;-55
2023/10/07 04:07:45;;;;;;;0.10;0.10;;;19.10;48.60;;;;;;5033128;28;20200;-55
2023/10/07 04:10:21;;;;;;;0.10;0.10;;;19.10;48.60;;;;;;5033668;28;20683;-57
2023/10/07 04:12:56;;;;;;;0.10;0.10;;;19.10;48.60;;;;;;5033644;28;20179;-45
2023/10/07 04:15:30;;;;;;;0.10;0.10;;;19.10;48.60;;;;;;5032700;28;20250;-51
2023/10/07 04:18:03;;;;;;;0.00;0.00;;;19.10;48.60;;;;;;5032737;28;20200;-58
2023/10/07 04:20:51;;;;;;;0.10;0.10;;;19.10;48.60;;;;;;5032589;28;20200;-55
2023/10/07 04:23:24;;;;;;;0.10;0.10;;;19.10;48.60;;;;;;5032695;28;20223;-53
2023/10/07 04:26:05;;;;;;;0.10;0.10;;;19.10;48.50;;;;;;5032963;28;20196;-51
2023/10/07 04:28:39;;;;;;;0.10;0.10;;;19.10;48.60;;;;;;5032478;28;20220;-47
2023/10/07 04:31:12;;;;;;;0.00;0.00;;;19.10;48.60;;;;;;5032122;28;20231;-54
2023/10/07 04:33:47;;;;;;;0.17;0.17;;;19.10;48.60;;;;;;5019638;28;20227;-54
2023/10/07 04:36:33;;;;;;;0.10;0.10;;;19.10;48.60;;;;;;5012359;28;20255;-56
2023/10/07 04:39:15;;;;;;;0.10;0.10;;;19.10;48.50;;;;;;5013015;28;20279;-55
2023/10/07 04:41:56;;;;;;;0.10;0.10;;;19.10;48.50;;;;;;5012805;28;20215;-52
2023/10/07 04:45:15;;;;;;;0.10;0.10;;;19.10;48.50;;;;;;5012720;28;20303;-51
2023/10/07 04:47:34;;;;;;;0.03;0.03;;;19.10;48.50;;;;;;5024113;28;20200;-46
2023/10/07 04:50:14;;;;;;;0.10;0.10;;;19.10;48.40;;;;;;5031937;28;20223;-50
2023/10/07 04:52:51;;;;;;;0.10;0.10;;;19.10;48.40;;;;;;5032022;28;20650;-53
2023/10/07 04:55:25;;;;;;;0.10;0.10;;;19.10;48.50;;;;;;5032155;28;20246;-49
2023/10/07 04:57:59;;;;;;;0.00;0.00;;;19.10;48.40;;;;;;5032214;28;20195;-53
2023/10/07 05:00:34;;;;;;;0.08;0.08;;;19.10;48.50;;;;;;5031673;28;20200;-49
2023/10/07 05:03:14;;;;;;;0.00;0.00;;;19.10;48.40;;;;;;5031482;28;20211;-54
2023/10/07 05:05:44;;;;;;;0.10;0.10;;;19.10;48.70;;;;;;5032031;28;20291;-54
2023/10/07 05:08:17;;;;;;;0.10;0.10;;;19.10;48.50;;;;;;5031923;28;20635;-50
2023/10/07 05:10:52;;;;;;;0.10;0.10;;;19.10;48.50;;;;;;5030521;28;20527;-54
2023/10/07 05:13:24;;;;;;;0.08;0.08;;;19.10;48.50;;;;;;5012441;28;20216;-55
2023/10/07 05:15:55;;;;;;;0.08;0.08;;;19.10;48.60;;;;;;5012405;28;20579;-57
2023/10/07 05:18:27;;;;;;;0.10;0.10;;;19.10;48.60;;;;;;5031770;28;20279;-54
2023/10/07 05:20:58;;;;;;;0.10;0.10;;;19.10;48.60;;;;;;5031658;28;20246;-56
2023/10/07 05:23:28;;;;;;;0.10;0.10;;;19.10;48.60;;;;;;5031441;28;20266;-53
2023/10/07 05:26:03;;;;;;;0.10;0.10;;;19.10;48.60;;;;;;5032047;28;20223;-58
2023/10/07 05:28:34;;;;;;;0.10;0.10;;;19.10;48.50;;;;;;5031655;28;20198;-57
2023/10/07 05:31:05;;;;;;;0.03;0.03;;;19.10;48.50;;;;;;5031188;28;20224;-57
2023/10/07 05:33:38;;;;;;;0.10;0.10;;;19.10;48.60;;;;;;5031686;28;20227;-52
2023/10/07 05:36:11;;;;;;;0.08;0.08;;;19.10;48.60;;;;;;5031609;28;20199;-56
2023/10/07 05:38:44;;;;;;;0.10;0.10;;;19.10;48.50;;;;;;5030853;28;20193;-57
2023/10/07 05:41:15;;;;;;;0.10;0.10;;;19.10;48.50;;;;;;5031368;28;20199;-54
2023/10/07 05:43:48;;;;;;;0.10;0.10;;;19.10;48.50;;;;;;5031422;28;20212;-55
2023/10/07 05:46:19;;;;;;;0.10;0.10;;;19.10;48.50;;;;;;5031055;28;20203;-55
2023/10/07 05:48:53;;;;;;;0.10;0.10;;;19.10;48.50;;;;;;5031369;28;20196;-48
2023/10/07 05:51:25;;;;;;;0.00;0.00;;;19.00;48.40;;;;;;5031543;28;20703;-55
2023/10/07 05:53:56;;;;;;;0.00;0.00;;;19.00;48.40;;;;;;5031437;28;20316;-51
2023/10/07 05:56:27;;;;;;;0.10;0.10;;;19.00;48.40;;;;;;5031802;28;20644;-56
2023/10/07 05:58:58;;;;;;;0.10;0.10;;;19.00;48.50;;;;;;5031001;28;20227;-52
2023/10/07 06:01:29;;;;;;;0.00;0.00;;;19.00;48.50;;;;;;5031450;28;20726;-56
2023/10/07 06:04:02;;;;;;;0.10;0.10;;;19.00;48.50;;;;;;5031556;28;20584;-57
2023/10/07 06:06:33;;;;;;;0.00;0.00;;;19.00;48.50;;;;;;5031063;28;20246;-56
2023/10/07 06:09:03;;;;;;;0.05;0.05;;;19.00;48.50;;;;;;5031454;28;20694;-53
2023/10/07 06:11:34;;;;;;;0.10;0.10;;;19.00;48.50;;;;;;5031703;28;20533;-57
2023/10/07 06:14:06;;;;;;;0.10;0.10;;;19.00;48.50;;;;;;5031939;28;20222;-56
2023/10/07 06:16:37;;;;;;;0.10;0.10;;;19.00;48.50;;;;;;5031277;28;20254;-56
2023/10/07 06:19:11;;;;;;;0.00;0.00;;;19.00;48.50;;;;;;5031259;28;20242;-57
2023/10/07 06:21:50;;;;;;;0.08;0.08;;;19.00;48.50;;;;;;5031439;28;20656;-57
2023/10/07 06:24:23;;;;;;;0.05;0.05;;;19.00;48.40;;;;;;5026863;28;20208;-57
2023/10/07 06:26:54;;;;;;;0.00;0.00;;;19.00;48.40;;;;;;5015206;28;20205;-56
2023/10/07 06:29:31;;;;;;;0.00;0.00;;;19.00;48.40;;;;;;5014514;28;20209;-52
2023/10/07 06:32:22;;;;;;;0.10;0.10;;;18.90;48.30;;;;;;5015351;28;20751;-57
2023/10/07 06:34:56;;;;;;;0.00;0.00;;;18.90;48.30;;;;;;5015030;28;20224;-51
2023/10/07 06:37:29;;;;;;;0.00;0.00;;;18.90;48.30;;;;;;5014937;28;20283;-57
2023/10/07 06:40:00;;;;;;;0.05;0.05;;;18.90;48.30;;;;;;5014965;28;20239;-58
2023/10/07 06:42:31;;;;;;;0.00;0.00;;;18.90;48.40;;;;;;5014955;28;20250;-58
2023/10/07 06:45:06;;;;;;;0.10;0.10;;;18.90;48.40;;;;;;5014245;28;20266;-57
2023/10/07 06:47:38;;;;;;;0.10;0.10;;;18.90;48.40;;;;;;5028731;28;20660;-58
2023/10/07 06:50:17;;;;;;;0.00;0.00;;;18.90;48.40;;;;;;5034679;28;20230;-58
2023/10/07 06:52:49;;;;;;;0.10;0.10;;;18.90;48.40;;;;;;5034559;28;20207;-57
2023/10/07 06:55:20;;;;;;;0.10;0.10;;;18.90;48.40;;;;;;5034398;28;20254;-57
2023/10/07 06:57:56;;;;;;;0.10;0.10;;;18.90;48.40;;;;;;5034180;28;20192;-51
2023/10/07 07:00:37;;;;;;;0.03;0.03;;;18.90;48.40;;;;;;5033023;28;20192;-57
2023/10/07 07:03:10;;;;;;;0.10;0.10;;;18.90;48.40;;;;;;5034069;28;20216;-56
2023/10/07 07:05:45;;;;;;;0.10;0.10;;;18.90;48.40;;;;;;5034269;28;20223;-57
2023/10/07 07:08:15;;;;;;;0.10;0.10;;;18.80;48.30;;;;;;5033722;28;20242;-53
2023/10/07 07:10:50;;;;;;;0.00;0.00;;;18.80;48.30;;;;;;5033031;28;20220;-53
2023/10/07 07:13:25;;;;;;;0.00;0.00;;;18.80;48.30;;;;;;5014335;28;20273;-55
2023/10/07 07:16:06;;;;;;;0.10;0.10;;;18.80;48.30;;;;;;5014525;28;20204;-54
2023/10/07 07:18:39;;;;;;;0.10;0.10;;;18.80;48.30;;;;;;5034211;28;20286;-51
2023/10/07 07:21:26;;;;;;;0.10;0.10;;;18.80;48.30;;;;;;5033893;28;20543;-56
2023/10/07 07:23:57;;;;;;;0.10;0.10;;;18.80;48.30;;;;;;5033494;28;20215;-57
2023/10/07 07:26:30;;;;;;;0.00;0.00;;;18.80;48.30;;;;;;5033385;28;20200;-56
2023/10/07 07:29:04;;;;;;;0.10;0.10;;;18.70;48.30;;;;;;5033197;28;20216;-54
2023/10/07 07:31:35;;;;;;;0.00;0.00;;;18.70;48.30;;;;;;5033242;28;20314;-56
2023/10/07 07:34:20;;;;;;;0.00;0.00;;;18.80;48.40;;;;;;5032367;28;20311;-54
2023/10/07 07:37:01;;;;;;;0.03;0.03;;;18.70;48.40;;;;;;5033144;28;20283;-57
2023/10/07 07:39:32;;;;;;;0.10;0.10;;;18.70;48.30;;;;;;5033577;28;20265;-56
2023/10/07 07:42:15;;;;;;;0.00;0.00;;;18.70;48.30;;;;;;5033139;28;20245;-58
2023/10/07 07:44:56;;;;;;;0.00;0.00;;;18.70;48.30;;;;;;5032984;28;20220;-57
2023/10/07 07:47:30;;;;;;;0.08;0.08;;;18.70;48.40;;;;;;5033775;28;20204;-53
2023/10/07 07:50:07;;;;;;;0.10;0.10;;;18.70;48.40;;;;;;5033371;28;20210;-48
2023/10/07 07:52:39;;;;;;;0.10;0.10;;;18.70;48.30;;;;;;5033412;28;20203;-55
2023/10/07 07:55:12;;;;;;;0.08;0.08;;;18.70;48.30;;;;;;5033310;28;20200;-53
2023/10/07 07:57:44;;;;;;;0.00;0.00;;;18.60;48.30;;;;;;5033249;28;20196;-54
2023/10/07 08:00:20;;;;;;;0.10;0.10;;;18.60;48.30;;;;;;5032969;28;20291;-46
2023/10/07 08:02:51;;;;;;;0.10;0.10;;;18.60;48.30;;;;;;5033449;28;20206;-55
2023/10/07 08:05:22;;;;;;;0.10;0.10;;;18.60;48.30;;;;;;5033237;28;20204;-54
2023/10/07 08:07:55;;;;;;;0.10;0.10;;;18.60;48.30;;;;;;5032986;28;20545;-47
2023/10/07 08:10:28;;;;;;;0.10;0.10;;;18.60;48.30;;;;;;5032843;28;20613;-51
2023/10/07 08:12:59;;;;;;;0.10;0.10;;;18.60;48.30;;;;;;5033121;28;20192;-49
2023/10/07 08:15:38;;;;;;;0.00;0.00;;;18.60;48.40;;;;;;5030210;28;20368;-54
2023/10/07 08:18:09;;;;;;;0.10;0.10;;;18.60;48.40;;;;;;5032640;28;20196;-48
2023/10/07 08:20:44;;;;;;;0.10;0.10;;;18.60;48.40;;;;;;5030260;28;20275;-55
2023/10/07 08:23:24;;;;;;;0.10;0.10;;;18.60;48.40;;;;;;5031730;28;20220;-46
2023/10/07 08:25:58;;;;;;;0.10;0.10;;;18.50;48.30;;;;;;5032143;28;20196;-56
2023/10/07 08:28:42;;;;;;;0.10;0.10;;;18.50;48.30;;;;;;5023952;28;20193;-51
2023/10/07 08:31:17;;;;;;;0.10;0.10;;;18.50;48.30;;;;;;5028662;28;20266;-54
2023/10/07 08:33:53;;;;;;;0.10;0.10;;;18.50;48.30;;;;;;5031367;28;20342;-52
2023/10/07 08:36:29;;;;;;;0.00;0.00;;;18.50;48.30;;;;;;5031511;28;20199;-48
2023/10/07 08:39:05;;;;;;;0.00;0.00;;;18.50;48.30;;;;;;5030819;28;20213;-49
2023/10/07 08:41:37;;;;;;;0.10;0.10;;;18.50;48.30;;;;;;5030990;28;20199;-56
2023/10/07 08:44:13;;;;;;;0.00;0.00;;;18.50;48.30;;;;;;5031114;28;20763;-47
2023/10/07 08:46:48;;;;;;;0.10;0.10;;;18.50;48.30;;;;;;5031016;28;20206;-47
2023/10/07 08:49:26;;;;;;;0.00;0.00;;;18.50;48.30;;;;;;5032461;28;20210;-53
2023/10/07 08:51:59;;;;;;;0.00;0.00;;;18.50;48.30;;;;;;5031219;28;20227;-49
2023/10/07 08:54:37;;;;;;;0.10;0.10;;;18.40;48.30;;;;;;5031341;28;20227;-50
2023/10/07 08:57:14;;;;;;;0.00;0.00;;;18.50;48.40;;;;;;5031173;28;20283;-54
2023/10/07 08:59:49;;;;;;;0.08;0.08;;;18.40;48.30;;;;;;5031211;28;20318;-52
2023/10/07 09:02:30;;;;;;;0.10;0.10;;;18.40;48.40;;;;;;5030696;28;20277;-56
2023/10/07 09:05:05;;;;;;;0.00;0.00;;;18.40;48.40;;;;;;5029324;28;20216;-54
2023/10/07 09:07:36;;;;;;;0.08;0.08;;;18.40;48.40;;;;;;5031628;28;20288;-50
2023/10/07 09:10:10;;;;;;;0.10;0.10;;;18.40;48.30;;;;;;5033475;28;20275;-53
2023/10/07 09:12:49;;;;;;;0.10;0.10;;;18.40;48.40;;;;;;5027385;28;20590;-55
2023/10/07 09:15:25;;;;;;;0.10;0.10;;;18.40;48.40;;;;;;5029261;28;20301;-48
2023/10/07 09:18:03;;;;;;;0.10;0.10;;;18.40;48.40;;;;;;5036812;28;20231;-57
2023/10/07 09:20:36;;;;;;;0.10;0.10;;;18.40;48.30;;;;;;5027197;28;20204;-54
2023/10/07 09:23:15;;;;;;;0.10;0.10;;;18.40;48.40;;;;;;5027864;28;20200;-52
2023/10/07 09:25:50;;;;;;;0.10;0.10;;;18.30;48.30;;;;;;5028757;28;20199;-56
2023/10/07 09:28:21;;;;;;;0.10;0.10;;;18.30;48.30;;;;;;5018629;28;20192;-57
2023/10/07 09:30:52;;;;;;;0.10;0.10;;;18.30;48.30;;;;;;5018557;28;20206;-57
2023/10/07 09:33:24;;;;;;;0.10;0.10;;;18.30;48.40;;;;;;5029729;28;20273;-55
2023/10/07 09:36:22;;;;;;;0.10;0.10;;;18.30;48.30;;;;;;5030685;28;20208;-56
2023/10/07 09:39:05;;;;;;;0.10;0.10;;;18.30;48.30;;;;;;5029501;28;20195;-56
2023/10/07 09:41:38;;;;;;;0.10;0.10;;;18.30;48.30;;;;;;5016619;28;20287;-56
2023/10/07 09:44:19;;;;;;;0.10;0.10;;;18.30;48.90;;;;;;5029350;28;20278;-55
2023/10/07 09:46:52;;;;;;;0.10;0.10;;;18.30;48.40;;;;;;5029401;28;20211;-56
2023/10/07 09:49:23;;;;;;;0.05;0.05;;;18.30;48.40;;;;;;5016315;28;20232;-51
2023/10/07 09:51:56;;;;;;;0.10;0.10;;;18.30;48.40;;;;;;5033629;28;20223;-52
2023/10/07 09:54:47;;;;;;;0.00;0.00;;;18.30;48.90;;;;;;5027002;28;20212;-55
2023/10/07 09:57:32;;;;;;;0.10;0.10;;;18.30;48.40;;;;;;5025472;28;20196;-57
2023/10/07 10:03:39;;;;;;;0.10;0.10;;;18.30;48.40;;;;;;5035064;28;20202;-57
2023/10/07 10:06:25;;;;;;;0.10;0.10;;;18.20;48.30;;;;;;5032261;28;20204;-53
2023/10/07 10:09:08;;;;;;;0.10;0.10;;;18.20;48.30;;;;;;5033346;28;20261;-54
2023/10/07 10:11:51;;;;;;;0.10;0.10;;;18.20;48.30;;;;;;5032574;28;20422;-56
2023/10/07 10:14:56;;;;;;;0.10;0.10;;;18.20;48.30;;;;;;5033390;28;20716;-52
2023/10/07 10:17:34;;;;;;;0.10;0.10;;;18.20;48.30;;;;;;5025690;28;20205;-56
2023/10/07 10:20:12;;;;;;;0.00;0.00;;;18.10;48.30;;;;;;5032061;28;20879;-58
2023/10/07 10:22:53;;;;;;;0.10;0.10;;;18.10;48.50;;;;;;5032777;28;20204;-56
2023/10/07 10:25:36;;;;;;;0.10;0.10;;;18.10;48.50;;;;;;5018083;28;20222;-57
2023/10/07 10:28:08;;;;;;;0.10;0.10;;;18.10;48.50;;;;;;5031570;28;20203;-55
2023/10/07 10:30:53;;;;;;;0.10;0.10;;;18.10;49.20;;;;;;5032126;28;20227;-57
2023/10/07 10:33:25;;;;;;;0.00;0.00;;;18.10;48.60;;;;;;5032267;28;20577;-55
2023/10/07 10:35:57;;;;;;;0.10;0.10;;;18.10;48.50;;;;;;5029840;28;20612;-58
2023/10/07 10:38:38;;;;;;;0.10;0.10;;;18.10;48.50;;;;;;5032959;28;20562;-56
2023/10/07 10:41:10;;;;;;;0.10;0.10;;;18.10;48.50;;;;;;5030264;28;20192;-57
2023/10/07 10:43:41;;;;;;;0.10;0.10;;;18.10;48.50;;;;;;5032746;28;20219;-57
2023/10/07 10:46:15;;;;;;;0.10;0.10;;;18.10;48.40;;;;;;5032797;28;20197;-47
2023/10/07 10:48:47;;;;;;;0.00;0.00;;;18.10;48.40;;;;;;5033276;28;20681;-57
2023/10/07 10:51:17;;;;;;;0.00;0.00;;;18.10;48.50;;;;;;5033539;28;20255;-57
2023/10/07 10:53:50;;;;;;;0.10;0.10;;;18.10;48.50;;;;;;5032173;28;20693;-53
2023/10/07 10:56:21;;;;;;;0.10;0.10;;;18.20;48.50;;;;;;5032859;28;20262;-54
2023/10/07 10:58:56;;;;;;;0.00;0.00;;;18.10;48.50;;;;;;5031881;28;20192;-57
2023/10/07 11:01:39;;;;;;;0.10;0.10;;;18.10;48.50;;;;;;5029557;28;20565;-53
2023/10/07 11:04:12;;;;;;;0.08;0.08;;;18.10;48.50;;;;;;5031879;28;20653;-54
2023/10/07 11:06:43;;;;;;;0.00;0.00;;;18.10;48.50;;;;;;5031972;28;20648;-50
2023/10/07 11:09:17;;;;;;;0.00;0.00;;;18.10;48.50;;;;;;5033848;28;20684;-51
2023/10/07 11:11:52;;;;;;;0.00;0.00;;;18.10;48.50;;;;;;5031944;28;20234;-50
2023/10/07 11:14:23;;;;;;;0.00;0.00;;;18.10;49.10;;;;;;5018063;28;20212;-57
2023/10/07 11:17:00;;;;;;;0.10;0.10;;;18.00;48.50;;;;;;5022699;28;20262;-56
2023/10/07 11:19:32;;;;;;;0.10;0.10;;;18.00;48.50;;;;;;5033601;28;20239;-54
2023/10/07 11:22:03;;;;;;;0.05;0.05;;;18.00;48.50;;;;;;5033314;28;20196;-52
2023/10/07 11:24:34;;;;;;;0.00;0.00;;;18.00;48.50;;;;;;5032526;28;20216;-49
2023/10/07 11:27:08;;;;;;;0.03;0.03;;;18.00;48.50;;;;;;5033196;28;20203;-57
2023/10/07 11:29:40;;;;;;;0.00;0.00;;;18.00;48.50;;;;;;5032853;28;20595;-49
2023/10/07 11:32:12;;;;;;;0.10;0.10;;;18.00;48.50;;;;;;5032517;28;20334;-53
2023/10/07 11:34:43;;;;;;;0.00;0.00;;;18.00;48.50;;;;;;5029774;28;20304;-51
2023/10/07 11:37:18;;;;;;;0.00;0.00;;;18.00;48.50;;;;;;5029346;28;20649;-48
2023/10/07 11:39:48;;;;;;;0.10;0.10;;;18.00;48.50;;;;;;5019492;28;20200;-55
2023/10/07 11:42:20;;;;;;;0.10;0.10;;;17.90;48.50;;;;;;5029346;28;20197;-52
2023/10/07 11:44:55;;;;;;;0.03;0.03;;;18.00;48.60;;;;;;5029899;28;20246;-56
2023/10/07 11:47:27;;;;;;;0.00;0.00;;;17.90;48.50;;;;;;5029444;28;20279;-49
2023/10/07 11:49:57;;;;;;;0.10;0.10;;;17.90;48.60;;;;;;5029385;28;20196;-55
2023/10/07 11:52:29;;;;;;;0.00;0.00;;;17.90;48.50;;;;;;5030418;28;20224;-47
2023/10/07 11:55:00;;;;;;;0.05;0.05;;;17.90;48.50;;;;;;5027874;28;20208;-52
2023/10/07 11:57:31;;;;;;;0.10;0.10;;;17.90;48.50;;;;;;5029901;28;20199;-56
2023/10/07 12:00:02;;;;;;;0.10;0.10;;;17.90;48.60;;;;;;5030358;28;20196;-54
2023/10/07 12:02:38;;;;;;;0.00;0.00;;;17.90;48.50;;;;;;5029992;28;20235;-53
2023/10/07 12:05:10;;;;;;;0.10;0.10;;;17.80;48.50;;;;;;5030075;28;20216;-53
2023/10/07 12:07:41;;;;;;;0.00;0.00;;;17.80;48.50;;;;;;5028591;28;20718;-55
2023/10/07 12:10:15;;;;;;;0.10;0.10;;;17.90;48.50;;;;;;5030172;28;20227;-57
2023/10/07 12:12:46;;;;;;;0.10;0.10;;;17.80;48.50;;;;;;5029993;28;20318;-56
2023/10/07 12:15:17;;;;;;;0.10;0.10;;;17.80;48.50;;;;;;5027106;28;20270;-56
2023/10/07 12:17:50;;;;;;;0.05;0.05;;;17.80;48.50;;;;;;5030436;28;20445;-56
2023/10/07 12:20:22;;;;;;;0.00;0.00;;;17.80;48.50;;;;;;5027665;28;20196;-54
2023/10/07 12:22:53;;;;;;;0.00;0.00;;;17.80;48.50;;;;;;5029676;28;20672;-56
2023/10/07 12:25:23;;;;;;;0.00;0.00;;;17.80;48.50;;;;;;5029923;28;20192;-57
2023/10/07 12:27:54;;;;;;;0.00;0.00;;;17.80;48.50;;;;;;5030464;28;20184;-56
2023/10/07 12:30:26;;;;;;;0.05;0.05;;;17.70;48.40;;;;;;5030182;28;20200;-55
2023/10/07 12:32:59;;;;;;;0.10;0.10;;;17.70;48.40;;;;;;5028481;28;20219;-57
2023/10/07 12:35:34;;;;;;;0.10;0.10;;;17.70;48.40;;;;;;5032374;28;20253;-55
2023/10/07 12:38:04;;;;;;;0.03;0.03;;;17.70;48.40;;;;;;5030662;28;20187;-56
2023/10/07 12:40:35;;;;;;;0.10;0.10;;;17.70;48.40;;;;;;5032309;28;20618;-55
2023/10/07 12:43:07;;;;;;;0.10;0.10;;;17.70;48.40;;;;;;5032375;28;20200;-56
2023/10/07 12:45:38;;;;;;;0.10;0.10;;;17.70;48.40;;;;;;5032325;28;20232;-55
2023/10/07 12:48:12;;;;;;;0.10;0.10;;;17.70;48.40;;;;;;5032102;28;20200;-55
2023/10/07 12:50:44;;;;;;;0.10;0.10;;;17.70;48.40;;;;;;5032452;28;20601;-56
2023/10/07 12:53:16;;;;;;;0.00;0.00;;;17.60;48.40;;;;;;5032136;28;20282;-57
2023/10/07 12:55:48;;;;;;;0.08;0.08;;;17.60;48.40;;;;;;5031619;28;20200;-56
2023/10/07 12:58:19;;;;;;;0.10;0.10;;;17.60;48.40;;;;;;5031685;28;20202;-55
2023/10/07 13:00:51;;;;;;;0.00;0.00;;;17.60;48.40;;;;;;5032063;28;20192;-56
2023/10/07 13:03:25;;;;;;;0.10;0.10;;;17.60;48.40;;;;;;5031785;28;20219;-56
2023/10/07 13:06:00;;;;;;;0.10;0.10;;;17.60;48.40;;;;;;5030964;28;20196;-55
2023/10/07 13:08:31;;;;;;;0.10;0.10;;;17.60;48.40;;;;;;5011835;28;20201;-56
2023/10/07 13:11:02;;;;;;;0.00;0.00;;;17.60;48.40;;;;;;5011615;28;20251;-56
2023/10/07 13:13:34;;;;;;;0.10;0.10;;;17.60;48.40;;;;;;5011699;28;20267;-56
2023/10/07 13:16:11;;;;;;;0.10;0.10;;;17.60;48.40;;;;;;5014157;28;20296;-46
2023/10/07 13:18:46;;;;;;;0.10;0.10;;;17.60;48.50;;;;;;5031606;28;20191;-53
2023/10/07 13:21:18;;;;;;;0.10;0.10;;;17.60;48.40;;;;;;5032166;28;20192;-56
2023/10/07 13:23:49;;;;;;;0.10;0.10;;;17.50;48.40;;;;;;5032133;28;20220;-51
2023/10/07 13:26:20;;;;;;;0.10;0.10;;;17.50;48.40;;;;;;5031811;28;20207;-56
2023/10/07 13:28:50;;;;;;;0.10;0.10;;;17.50;48.40;;;;;;5031365;28;20196;-54
2023/10/07 13:31:21;;;;;;;0.10;0.10;;;17.50;48.40;;;;;;5031329;28;20258;-56
2023/10/07 13:33:53;;;;;;;0.10;0.10;;;17.50;48.40;;;;;;5030420;28;20648;-54
2023/10/07 13:36:24;;;;;;;0.10;0.10;;;17.50;48.40;;;;;;5031501;28;20200;-53